createdAt,value
2017-08-29T00:00:01.049Z,96.56
2017-08-29T00:00:29.015Z,96.56
2017-08-29T00:00:56.857Z,97.33
2017-08-29T00:01:24.647Z,96.66
2017-08-29T00:01:52.768Z,96.27
2017-08-29T00:02:20.601Z,96.18
2017-08-29T00:02:48.515Z,96.27
2017-08-29T00:03:16.544Z,95.98
2017-08-29T00:03:44.337Z,96.27
2017-08-29T00:04:12.472Z,96.66
2017-08-29T00:04:40.613Z,96.27
2017-08-29T00:05:08.613Z,95.6
2017-08-29T00:05:36.652Z,95.6
2017-08-29T00:06:04.634Z,95.41
2017-08-29T00:06:32.737Z,95.31
2017-08-29T00:07:00.871Z,95.7
2017-08-29T00:07:29.033Z,95.79
2017-08-29T00:07:57.196Z,95.79
2017-08-29T00:08:25.086Z,95.89
2017-08-29T00:08:53.095Z,95.89
2017-08-29T00:09:21.021Z,95.75
2017-08-29T00:09:49.137Z,95.89
2017-08-29T00:10:17.157Z,95.79
2017-08-29T00:10:45.294Z,95.51
2017-08-29T00:11:13.232Z,95.7
2017-08-29T00:11:41.137Z,96.47
2017-08-29T00:12:09.060Z,96.37
2017-08-29T00:12:37.179Z,95.79
2017-08-29T00:13:05.089Z,96.18
2017-08-29T00:13:33.205Z,96.47
2017-08-29T00:14:01.160Z,96.27
2017-08-29T00:14:29.162Z,96.27
2017-08-29T00:14:56.967Z,96.94
2017-08-29T00:15:24.879Z,96.94
2017-08-29T00:15:53.030Z,97.04
2017-08-29T00:16:21.055Z,97.04
2017-08-29T00:16:48.963Z,96.94
2017-08-29T00:17:16.994Z,96.94
2017-08-29T00:17:44.912Z,96.75
2017-08-29T00:18:13.044Z,96.18
2017-08-29T00:18:41.180Z,97.23
2017-08-29T00:19:09.001Z,96.75
2017-08-29T00:19:37.139Z,97.33
2017-08-29T00:20:05.164Z,96.89
2017-08-29T00:20:33.282Z,97.04
2017-08-29T00:21:01.399Z,96.94
2017-08-29T00:21:29.545Z,97.04
2017-08-29T00:21:57.529Z,96.85
2017-08-29T00:22:25.634Z,96.66
2017-08-29T00:22:53.540Z,97.42
2017-08-29T00:23:21.310Z,97.04
2017-08-29T00:23:49.419Z,97.33
2017-08-29T00:24:17.533Z,97.33
2017-08-29T00:24:45.537Z,97.14
2017-08-29T00:25:13.541Z,96.94
2017-08-29T00:25:41.467Z,97.14
2017-08-29T00:26:09.580Z,97.42
2017-08-29T00:26:37.612Z,96.85
2017-08-29T00:27:05.709Z,96.94
2017-08-29T00:27:34.397Z,96.94
2017-08-29T00:28:02.304Z,96.85
2017-08-29T00:28:30.313Z,96.94
2017-08-29T00:28:58.449Z,96.75
2017-08-29T00:29:26.464Z,96.66
2017-08-29T00:29:54.462Z,97.04
2017-08-29T00:30:22.455Z,96.66
2017-08-29T00:30:50.416Z,96.66
2017-08-29T00:31:18.549Z,96.47
2017-08-29T00:31:46.456Z,96.18
2017-08-29T00:32:14.456Z,96.75
2017-08-29T00:32:42.544Z,96.85
2017-08-29T00:33:10.620Z,96.27
2017-08-29T00:33:53.538Z,96.27
2017-08-29T00:34:21.818Z,96.08
2017-08-29T00:35:04.794Z,95.98
2017-08-29T00:35:33.177Z,96.47
2017-08-29T00:36:43.856Z,96.56
2017-08-29T00:37:11.867Z,96.66
2017-08-29T00:37:39.958Z,96.47
2017-08-29T00:38:07.945Z,96.47
2017-08-29T00:38:35.884Z,97.33
2017-08-29T00:39:03.896Z,96.85
2017-08-29T00:39:31.999Z,97.04
2017-08-29T00:40:00.089Z,96.66
2017-08-29T00:40:27.919Z,97.04
2017-08-29T00:40:55.967Z,96.85
2017-08-29T00:41:24.002Z,96.94
2017-08-29T00:41:51.996Z,97.14
2017-08-29T00:42:20.095Z,97.23
2017-08-29T00:42:48.186Z,96.85
2017-08-29T00:43:16.290Z,96.56
2017-08-29T00:43:44.293Z,95.89
2017-08-29T00:44:12.400Z,96.47
2017-08-29T00:44:40.502Z,96.47
2017-08-29T00:45:08.517Z,96.56
2017-08-29T00:45:36.551Z,96.66
2017-08-29T00:46:04.482Z,95.89
2017-08-29T00:46:32.599Z,96.27
2017-08-29T00:47:00.748Z,96.27
2017-08-29T00:47:28.752Z,96.61
2017-08-29T00:47:56.878Z,96.32
2017-08-29T00:48:24.783Z,96.18
2017-08-29T00:48:52.607Z,96.61
2017-08-29T00:49:20.697Z,96.32
2017-08-29T00:49:48.793Z,96.22
2017-08-29T00:50:16.781Z,96.13
2017-08-29T00:50:45.055Z,96.13
2017-08-29T00:51:13.196Z,96.89
2017-08-29T00:51:41.975Z,96.89
2017-08-29T00:52:10.114Z,97.09
2017-08-29T00:52:38.507Z,96.89
2017-08-29T00:53:06.441Z,96.7
2017-08-29T00:53:34.559Z,96.8
2017-08-29T00:54:02.521Z,96.7
2017-08-29T00:54:30.556Z,96.99
2017-08-29T00:54:58.580Z,96.89
2017-08-29T00:55:26.595Z,96.99
2017-08-29T00:55:54.731Z,96.89
2017-08-29T00:56:22.644Z,96.8
2017-08-29T00:56:50.686Z,97.09
2017-08-29T00:57:18.800Z,97.09
2017-08-29T00:57:46.955Z,96.42
2017-08-29T00:58:15.016Z,96.89
2017-08-29T00:58:43.358Z,96.89
2017-08-29T00:59:12.385Z,96.7
2017-08-29T00:59:40.122Z,97.09
2017-08-29T01:00:08.254Z,96.99
2017-08-29T01:00:36.340Z,96.8
2017-08-29T01:01:04.460Z,97.38
2017-08-29T01:01:32.492Z,97.47
2017-08-29T01:02:00.508Z,97.47
2017-08-29T01:02:28.610Z,97.76
2017-08-29T01:02:56.409Z,97.33
2017-08-29T01:03:24.428Z,97.71
2017-08-29T01:03:52.446Z,97.23
2017-08-29T01:04:20.558Z,97.42
2017-08-29T01:04:48.671Z,97.42
2017-08-29T01:05:16.677Z,97.33
2017-08-29T01:05:44.560Z,96.94
2017-08-29T01:06:12.674Z,97.04
2017-08-29T01:06:40.822Z,97.04
2017-08-29T01:07:08.703Z,97.04
2017-08-29T01:07:36.805Z,97.04
2017-08-29T01:08:04.962Z,96.56
2017-08-29T01:08:33.096Z,96.66
2017-08-29T01:09:01.111Z,96.84
2017-08-29T01:09:29.243Z,96.75
2017-08-29T01:09:57.386Z,97.33
2017-08-29T01:10:25.396Z,97.42
2017-08-29T01:10:53.311Z,97.71
2017-08-29T01:11:21.229Z,97.42
2017-08-29T01:11:49.237Z,97.9
2017-08-29T01:12:17.158Z,97.61
2017-08-29T01:12:45.186Z,97.33
2017-08-29T01:13:13.304Z,97.61
2017-08-29T01:13:41.655Z,97.52
2017-08-29T01:14:09.551Z,97.14
2017-08-29T01:14:37.670Z,97.04
2017-08-29T01:15:05.579Z,97.42
2017-08-29T01:15:33.501Z,97.33
2017-08-29T01:16:01.513Z,97.52
2017-08-29T01:16:29.633Z,97.61
2017-08-29T01:16:57.552Z,97.61
2017-08-29T01:17:25.581Z,97.61
2017-08-29T01:17:53.590Z,97.23
2017-08-29T01:18:21.691Z,97.14
2017-08-29T01:18:49.616Z,97.8
2017-08-29T01:19:17.805Z,98
2017-08-29T01:19:45.827Z,98
2017-08-29T01:20:13.828Z,98.47
2017-08-29T01:20:41.944Z,98.57
2017-08-29T01:21:10.063Z,99
2017-08-29T01:21:37.951Z,99.19
2017-08-29T01:22:06.083Z,98.91
2017-08-29T01:22:34.126Z,99.43
2017-08-29T01:23:02.150Z,99.1
2017-08-29T01:23:30.061Z,99.29
2017-08-29T01:23:57.972Z,99.05
2017-08-29T01:24:26.087Z,99.29
2017-08-29T01:24:53.977Z,99.58
2017-08-29T01:25:21.993Z,99.19
2017-08-29T01:25:50.029Z,99.05
2017-08-29T01:26:18.206Z,98.91
2017-08-29T01:26:46.313Z,98.91
2017-08-29T01:27:14.492Z,98.91
2017-08-29T01:27:42.427Z,98.62
2017-08-29T01:28:10.450Z,98.67
2017-08-29T01:28:38.263Z,98.86
2017-08-29T01:29:06.085Z,98.05
2017-08-29T01:29:34.205Z,98
2017-08-29T01:30:02.319Z,97.9
2017-08-29T01:30:30.130Z,98
2017-08-29T01:30:58.148Z,97.9
2017-08-29T01:31:26.284Z,97.56
2017-08-29T01:31:54.398Z,98.19
2017-08-29T01:32:22.489Z,98.76
2017-08-29T01:32:50.397Z,97.71
2017-08-29T01:33:18.524Z,97.52
2017-08-29T01:33:46.649Z,97.61
2017-08-29T01:34:14.770Z,98
2017-08-29T01:34:42.877Z,97.9
2017-08-29T01:35:10.880Z,98
2017-08-29T01:35:38.605Z,97.9
2017-08-29T01:36:06.635Z,97.9
2017-08-29T01:36:34.754Z,97.71
2017-08-29T01:37:02.852Z,97.8
2017-08-29T01:37:30.764Z,98
2017-08-29T01:37:58.879Z,97.42
2017-08-29T01:38:26.881Z,97.42
2017-08-29T01:38:54.893Z,97.52
2017-08-29T01:39:22.925Z,96.94
2017-08-29T01:39:50.917Z,96.75
2017-08-29T01:40:18.829Z,96.75
2017-08-29T01:40:46.833Z,96.84
2017-08-29T01:41:14.848Z,97.04
2017-08-29T01:41:42.831Z,96.75
2017-08-29T01:42:10.747Z,96.66
2017-08-29T01:42:38.904Z,96.66
2017-08-29T01:43:06.933Z,96.84
2017-08-29T01:43:35.054Z,96.84
2017-08-29T01:44:03.073Z,96.66
2017-08-29T01:44:31.157Z,96.94
2017-08-29T01:44:59.183Z,96.75
2017-08-29T01:45:26.991Z,96.84
2017-08-29T01:45:55.105Z,96.94
2017-08-29T01:46:23.205Z,97.04
2017-08-29T01:46:51.116Z,96.94
2017-08-29T01:47:19.138Z,96.84
2017-08-29T01:47:47.132Z,98.47
2017-08-29T01:48:15.161Z,98.47
2017-08-29T01:48:43.075Z,98.67
2017-08-29T01:49:11.175Z,98
2017-08-29T01:49:39.209Z,98.38
2017-08-29T01:50:07.325Z,98.47
2017-08-29T01:50:35.431Z,98.47
2017-08-29T01:51:03.338Z,98.47
2017-08-29T01:51:31.452Z,98.47
2017-08-29T01:51:59.482Z,98.76
2017-08-29T01:52:27.613Z,98.67
2017-08-29T01:52:55.691Z,97.9
2017-08-29T01:53:23.489Z,97.61
2017-08-29T01:53:51.599Z,96.84
2017-08-29T01:54:19.729Z,96.75
2017-08-29T01:54:47.835Z,96.94
2017-08-29T01:55:16.596Z,97.33
2017-08-29T01:55:44.733Z,97.42
2017-08-29T01:56:12.615Z,97.95
2017-08-29T01:56:40.724Z,98.19
2017-08-29T01:57:08.698Z,98.57
2017-08-29T01:57:36.805Z,98.62
2017-08-29T01:58:04.816Z,98.67
2017-08-29T01:58:33.039Z,98.1
2017-08-29T01:59:00.936Z,98
2017-08-29T01:59:29.042Z,97.9
2017-08-29T01:59:57.165Z,97.95
2017-08-29T02:00:25.086Z,97.9
2017-08-29T02:00:53.013Z,98
2017-08-29T02:01:21.161Z,98.1
2017-08-29T02:01:49.091Z,97.42
2017-08-29T02:02:17.119Z,98
2017-08-29T02:02:45.131Z,97.8
2017-08-29T02:03:13.249Z,97.52
2017-08-29T02:03:41.261Z,98.47
2017-08-29T02:04:09.384Z,99.05
2017-08-29T02:04:37.502Z,98.19
2017-08-29T02:05:05.641Z,98.76
2017-08-29T02:05:33.549Z,98.76
2017-08-29T02:06:01.596Z,99.43
2017-08-29T02:06:29.688Z,99.43
2017-08-29T02:06:57.809Z,99.34
2017-08-29T02:07:25.615Z,99.43
2017-08-29T02:07:53.721Z,99.34
2017-08-29T02:08:21.791Z,99.05
2017-08-29T02:08:49.916Z,99.05
2017-08-29T02:09:18.045Z,99.29
2017-08-29T02:09:46.160Z,99.19
2017-08-29T02:10:14.094Z,99.58
2017-08-29T02:10:42.099Z,99.99
2017-08-29T02:11:10.105Z,99.99
2017-08-29T02:11:38.055Z,99.99
2017-08-29T02:12:06.068Z,99.99
2017-08-29T02:12:33.973Z,99.99
2017-08-29T02:13:02.068Z,99.99
2017-08-29T02:13:30.059Z,99.99
2017-08-29T02:13:58.065Z,99.99
2017-08-29T02:14:26.106Z,99.99
2017-08-29T02:14:54.213Z,99.99
2017-08-29T02:15:22.233Z,99.99
2017-08-29T02:15:50.250Z,99.99
2017-08-29T02:16:18.169Z,99.99
2017-08-29T02:16:46.303Z,99.99
2017-08-29T02:17:14.216Z,99.99
2017-08-29T02:17:42.259Z,99.99
2017-08-29T02:18:10.383Z,99.99
2017-08-29T02:18:38.486Z,99.99
2017-08-29T02:19:06.475Z,99.99
2017-08-29T02:19:34.502Z,99.99
2017-08-29T02:20:02.506Z,99.99
2017-08-29T02:20:30.619Z,99.99
2017-08-29T02:20:58.750Z,99.99
2017-08-29T02:21:26.858Z,99.99
2017-08-29T02:21:54.993Z,99.99
2017-08-29T02:22:22.890Z,99.99
2017-08-29T02:22:51.006Z,99.99
2017-08-29T02:23:18.909Z,99.99
2017-08-29T02:23:46.753Z,99.99
2017-08-29T02:24:14.770Z,99.99
2017-08-29T02:24:57.402Z,99.99
2017-08-29T02:25:25.403Z,99.99
2017-08-29T02:25:53.221Z,99.99
2017-08-29T02:26:21.134Z,99.99
2017-08-29T02:26:49.230Z,99.99
2017-08-29T02:27:17.352Z,99.99
2017-08-29T02:27:45.361Z,99.99
2017-08-29T02:28:13.396Z,99.99
2017-08-29T02:28:41.406Z,99.99
2017-08-29T02:29:09.529Z,99.99
2017-08-29T02:29:37.665Z,99.99
2017-08-29T02:30:05.656Z,99.99
2017-08-29T02:30:33.685Z,99.99
2017-08-29T02:31:01.689Z,99.99
2017-08-29T02:31:29.804Z,99.99
2017-08-29T02:31:57.929Z,99.99
2017-08-29T02:32:25.749Z,99.99
2017-08-29T02:32:53.861Z,99.99
2017-08-29T02:33:21.972Z,99.99
2017-08-29T02:33:50.092Z,99.99
2017-08-29T02:34:18.111Z,99.99
2017-08-29T02:34:46.266Z,99.99
2017-08-29T02:35:14.342Z,99.99
2017-08-29T02:35:42.454Z,99.99
2017-08-29T02:36:10.573Z,99.99
2017-08-29T02:36:38.407Z,99.99
2017-08-29T02:37:06.548Z,99.99
2017-08-29T02:37:34.526Z,99.99
2017-08-29T02:38:02.654Z,99.99
2017-08-29T02:38:30.671Z,99.99
2017-08-29T02:38:58.684Z,99.99
2017-08-29T02:39:26.826Z,99.99
2017-08-29T02:39:54.945Z,99.99
2017-08-29T02:40:22.946Z,99.99
2017-08-29T02:40:51.065Z,99.99
2017-08-29T02:41:19.122Z,99.99
2017-08-29T02:41:47.210Z,99.99
2017-08-29T02:42:15.404Z,99.99
2017-08-29T02:42:43.220Z,99.99
2017-08-29T02:43:11.237Z,99.99
2017-08-29T02:43:39.322Z,99.99
2017-08-29T02:44:07.478Z,99.99
2017-08-29T02:44:35.473Z,99.99
2017-08-29T02:45:03.568Z,99.99
2017-08-29T02:45:31.695Z,99.99
2017-08-29T02:45:59.695Z,99.99
2017-08-29T02:46:27.807Z,99.99
2017-08-29T02:46:55.943Z,99.99
2017-08-29T02:47:24.208Z,99.99
2017-08-29T02:47:52.289Z,99.99
2017-08-29T02:48:20.333Z,99.99
2017-08-29T02:48:48.591Z,99.99
2017-08-29T02:49:16.635Z,99.99
2017-08-29T02:49:44.536Z,99.99
2017-08-29T02:50:12.471Z,99.99
2017-08-29T02:50:40.447Z,99.99
2017-08-29T02:51:08.356Z,99.96
2017-08-29T02:51:36.263Z,99.99
2017-08-29T02:52:04.158Z,99.99
2017-08-29T02:52:32.266Z,99.99
2017-08-29T02:53:00.478Z,99.99
2017-08-29T02:53:28.480Z,99.99
2017-08-29T02:53:56.598Z,99.99
2017-08-29T02:54:24.629Z,99.99
2017-08-29T02:54:52.747Z,99.99
2017-08-29T02:55:20.854Z,99.99
2017-08-29T02:55:48.956Z,99.99
2017-08-29T02:56:16.957Z,99.99
2017-08-29T02:56:45.086Z,99.99
2017-08-29T02:57:13.888Z,99.99
2017-08-29T02:57:41.997Z,99.99
2017-08-29T02:58:09.957Z,99.99
2017-08-29T02:58:38.052Z,99.99
2017-08-29T02:59:06.171Z,99.99
2017-08-29T02:59:34.278Z,99.99
2017-08-29T03:00:02.424Z,99.99
2017-08-29T03:00:30.521Z,99.99
2017-08-29T03:00:58.658Z,99.99
2017-08-29T03:01:26.762Z,99.99
2017-08-29T03:01:54.885Z,99.99
2017-08-29T03:02:22.993Z,99.99
2017-08-29T03:02:51.005Z,99.99
2017-08-29T03:03:19.004Z,99.99
2017-08-29T03:03:47.107Z,99.99
2017-08-29T03:04:15.097Z,99.99
2017-08-29T03:04:43.017Z,99.99
2017-08-29T03:05:11.135Z,99.99
2017-08-29T03:05:39.153Z,99.99
2017-08-29T03:06:07.291Z,99.99
2017-08-29T03:06:35.419Z,99.99
2017-08-29T03:07:03.421Z,99.99
2017-08-29T03:07:31.332Z,99.99
2017-08-29T03:08:00.003Z,99.99
2017-08-29T03:08:28.022Z,99.99
2017-08-29T03:08:56.023Z,99.99
2017-08-29T03:09:24.131Z,99.99
2017-08-29T03:09:52.235Z,99.99
2017-08-29T03:10:20.242Z,99.99
2017-08-29T03:10:48.358Z,99.99
2017-08-29T03:11:16.348Z,99.87
2017-08-29T03:11:44.260Z,99.99
2017-08-29T03:12:12.269Z,99.81
2017-08-29T03:12:40.289Z,99.91
2017-08-29T03:13:08.325Z,99.81
2017-08-29T03:13:36.229Z,99.99
2017-08-29T03:14:04.053Z,99.81
2017-08-29T03:14:31.998Z,99.99
2017-08-29T03:14:59.986Z,99.72
2017-08-29T03:15:27.970Z,99.99
2017-08-29T03:15:55.973Z,99.81
2017-08-29T03:16:23.974Z,99.99
2017-08-29T03:16:51.987Z,99.99
2017-08-29T03:17:19.997Z,99.99
2017-08-29T03:17:48.113Z,99.99
2017-08-29T03:18:16.204Z,99.72
2017-08-29T03:18:44.319Z,99.99
2017-08-29T03:19:12.390Z,99.99
2017-08-29T03:19:40.473Z,99.99
2017-08-29T03:20:08.475Z,99.99
2017-08-29T03:20:36.581Z,99.99
2017-08-29T03:21:04.582Z,99.99
2017-08-29T03:21:32.591Z,99.99
2017-08-29T03:22:00.635Z,99.99
2017-08-29T03:22:28.549Z,99.99
2017-08-29T03:22:56.672Z,99.99
2017-08-29T03:23:24.795Z,99.99
2017-08-29T03:23:52.799Z,99.99
2017-08-29T03:24:20.795Z,99.99
2017-08-29T03:24:48.822Z,99.99
2017-08-29T03:25:16.950Z,99.99
2017-08-29T03:25:45.067Z,99.99
2017-08-29T03:26:13.071Z,99.99
2017-08-29T03:26:41.085Z,99.99
2017-08-29T03:27:09.168Z,99.99
2017-08-29T03:27:37.260Z,99.99
2017-08-29T03:28:05.371Z,99.99
2017-08-29T03:28:33.487Z,99.99
2017-08-29T03:29:01.521Z,99.99
2017-08-29T03:29:29.549Z,99.99
2017-08-29T03:29:57.664Z,99.99
2017-08-29T03:30:25.574Z,99.99
2017-08-29T03:30:53.700Z,99.99
2017-08-29T03:31:21.733Z,99.99
2017-08-29T03:31:49.862Z,99.99
2017-08-29T03:32:17.860Z,99.99
2017-08-29T03:32:45.893Z,99.99
2017-08-29T03:33:13.986Z,99.99
2017-08-29T03:33:42.007Z,99.99
2017-08-29T03:34:10.034Z,99.99
2017-08-29T03:34:38.168Z,99.99
2017-08-29T03:35:06.260Z,99.99
2017-08-29T03:35:34.371Z,99.99
2017-08-29T03:36:02.457Z,99.99
2017-08-29T03:36:30.377Z,99.99
2017-08-29T03:36:58.301Z,99.81
2017-08-29T03:37:26.411Z,99.91
2017-08-29T03:37:54.430Z,99.99
2017-08-29T03:38:22.427Z,99.99
2017-08-29T03:38:50.559Z,99.99
2017-08-29T03:39:18.467Z,99.99
2017-08-29T03:39:46.558Z,99.81
2017-08-29T03:40:14.552Z,99.99
2017-08-29T03:40:42.659Z,99.99
2017-08-29T03:41:10.571Z,99.81
2017-08-29T03:41:38.692Z,99.99
2017-08-29T03:42:06.818Z,99.99
2017-08-29T03:42:34.721Z,99.99
2017-08-29T03:43:02.799Z,99.99
2017-08-29T03:43:30.796Z,99.99
2017-08-29T03:43:58.895Z,99.99
2017-08-29T03:44:27.013Z,99.99
2017-08-29T03:44:54.992Z,99.99
2017-08-29T03:45:23.088Z,99.99
2017-08-29T03:45:51.105Z,99.72
2017-08-29T03:46:19.128Z,99.91
2017-08-29T03:46:47.250Z,99.81
2017-08-29T03:47:15.278Z,99.91
2017-08-29T03:47:43.205Z,99.99
2017-08-29T03:48:11.319Z,99.33
2017-08-29T03:48:39.440Z,98.95
2017-08-29T03:49:07.527Z,98.76
2017-08-29T03:49:35.546Z,98.28
2017-08-29T03:50:03.549Z,98.09
2017-08-29T03:50:31.556Z,98.66
2017-08-29T03:50:59.480Z,99.33
2017-08-29T03:51:27.592Z,99.99
2017-08-29T03:51:55.677Z,99.99
2017-08-29T03:52:23.768Z,99.81
2017-08-29T03:52:51.665Z,99.99
2017-08-29T03:53:19.679Z,99.99
2017-08-29T03:53:47.804Z,99.99
2017-08-29T03:54:15.816Z,99.81
2017-08-29T03:54:43.829Z,99.99
2017-08-29T03:55:11.924Z,99.99
2017-08-29T03:55:40.051Z,99.99
2017-08-29T03:56:08.142Z,99.99
2017-08-29T03:56:36.248Z,99.99
2017-08-29T03:57:04.159Z,99.91
2017-08-29T03:57:32.495Z,99.99
2017-08-29T03:58:00.497Z,99.99
2017-08-29T03:58:28.624Z,99.76
2017-08-29T03:58:56.601Z,99.99
2017-08-29T03:59:24.637Z,99.99
2017-08-29T03:59:52.634Z,99.99
2017-08-29T04:00:20.759Z,99.99
2017-08-29T04:00:48.890Z,99.99
2017-08-29T04:01:16.992Z,99.99
2017-08-29T04:01:44.994Z,99.99
2017-08-29T04:02:13.123Z,99.99
2017-08-29T04:02:41.256Z,99.99
2017-08-29T04:03:09.369Z,99.99
2017-08-29T04:03:37.492Z,99.99
2017-08-29T04:04:05.412Z,99.99
2017-08-29T04:04:33.535Z,99.99
2017-08-29T04:05:01.673Z,99.99
2017-08-29T04:05:29.782Z,99.99
2017-08-29T04:05:57.901Z,99.99
2017-08-29T04:06:25.915Z,99.99
2017-08-29T04:06:53.713Z,99.99
2017-08-29T04:07:21.812Z,99.99
2017-08-29T04:07:49.841Z,99.99
2017-08-29T04:08:17.978Z,99.99
2017-08-29T04:08:45.985Z,99.99
2017-08-29T04:09:14.088Z,99.99
2017-08-29T04:09:42.206Z,99.99
2017-08-29T04:10:10.186Z,99.99
2017-08-29T04:10:38.283Z,99.99
2017-08-29T04:11:07.080Z,99.99
2017-08-29T04:11:35.118Z,99.99
2017-08-29T04:12:03.161Z,99.99
2017-08-29T04:12:31.268Z,99.99
2017-08-29T04:12:59.363Z,99.99
2017-08-29T04:13:27.459Z,99.99
2017-08-29T04:13:55.449Z,99.99
2017-08-29T04:14:23.457Z,99.99
2017-08-29T04:14:51.557Z,99.99
2017-08-29T04:15:19.628Z,99.99
2017-08-29T04:15:47.736Z,99.99
2017-08-29T04:16:15.638Z,99.99
2017-08-29T04:16:43.758Z,99.99
2017-08-29T04:17:11.871Z,99.99
2017-08-29T04:17:39.869Z,99.99
2017-08-29T04:18:07.980Z,99.99
2017-08-29T04:18:35.897Z,99.99
2017-08-29T04:19:03.992Z,99.99
2017-08-29T04:19:31.993Z,99.99
2017-08-29T04:19:59.991Z,99.99
2017-08-29T04:20:28.022Z,99.99
2017-08-29T04:20:55.929Z,99.99
2017-08-29T04:21:24.045Z,99.99
2017-08-29T04:21:51.944Z,99.99
2017-08-29T04:22:19.963Z,99.99
2017-08-29T04:22:47.967Z,99.99
2017-08-29T04:23:15.878Z,99.99
2017-08-29T04:23:43.873Z,99.99
2017-08-29T04:24:11.991Z,99.99
2017-08-29T04:24:40.018Z,99.99
2017-08-29T04:25:08.035Z,99.99
2017-08-29T04:25:36.137Z,99.99
2017-08-29T04:26:04.256Z,99.99
2017-08-29T04:26:32.237Z,99.99
2017-08-29T04:27:00.363Z,99.99
2017-08-29T04:27:28.272Z,99.99
2017-08-29T04:27:56.185Z,99.99
2017-08-29T04:28:24.299Z,99.99
2017-08-29T04:28:52.221Z,99.99
2017-08-29T04:29:20.204Z,99.99
2017-08-29T04:29:48.152Z,99.99
2017-08-29T04:30:16.180Z,99.99
2017-08-29T04:30:44.222Z,99.99
2017-08-29T04:31:12.358Z,99.99
2017-08-29T04:31:40.477Z,99.99
2017-08-29T04:32:08.581Z,99.99
2017-08-29T04:32:36.576Z,99.99
2017-08-29T04:33:04.604Z,99.99
2017-08-29T04:33:32.624Z,99.99
2017-08-29T04:34:00.621Z,99.99
2017-08-29T04:34:28.707Z,99.99
2017-08-29T04:34:56.789Z,99.99
2017-08-29T04:35:24.677Z,99.99
2017-08-29T04:35:52.582Z,99.99
2017-08-29T04:36:20.690Z,99.99
2017-08-29T04:36:48.813Z,99.99
2017-08-29T04:37:16.801Z,99.99
2017-08-29T04:37:44.887Z,99.99
2017-08-29T04:38:12.851Z,99.99
2017-08-29T04:38:40.947Z,99.99
2017-08-29T04:39:08.955Z,99.99
2017-08-29T04:39:36.995Z,99.99
2017-08-29T04:40:05.009Z,99.99
2017-08-29T04:40:33.009Z,99.99
2017-08-29T04:41:01.117Z,99.99
2017-08-29T04:41:29.231Z,99.99
2017-08-29T04:41:57.338Z,99.99
2017-08-29T04:42:25.146Z,99.99
2017-08-29T04:42:53.141Z,99.99
2017-08-29T04:43:21.222Z,99.99
2017-08-29T04:43:49.303Z,99.99
2017-08-29T04:44:17.399Z,99.99
2017-08-29T04:44:45.516Z,99.99
2017-08-29T04:45:13.631Z,99.99
2017-08-29T04:45:41.711Z,99.99
2017-08-29T04:46:09.822Z,99.99
2017-08-29T04:46:37.946Z,99.99
2017-08-29T04:47:06.650Z,99.99
2017-08-29T04:47:34.656Z,99.99
2017-08-29T04:48:02.756Z,99.99
2017-08-29T04:48:30.656Z,99.99
2017-08-29T04:48:58.732Z,99.99
2017-08-29T04:49:27.060Z,99.99
2017-08-29T04:49:55.091Z,99.99
2017-08-29T04:50:23.290Z,99.99
2017-08-29T04:50:51.400Z,99.99
2017-08-29T04:51:19.332Z,99.99
2017-08-29T04:51:47.455Z,99.99
2017-08-29T04:52:15.456Z,99.99
2017-08-29T04:52:43.456Z,99.99
2017-08-29T04:53:11.483Z,99.99
2017-08-29T04:53:39.482Z,99.99
2017-08-29T04:54:07.595Z,99.99
2017-08-29T04:54:35.514Z,99.99
2017-08-29T04:55:03.640Z,99.99
2017-08-29T04:55:31.643Z,99.99
2017-08-29T04:55:59.744Z,99.99
2017-08-29T04:56:27.658Z,99.99
2017-08-29T04:56:55.640Z,99.99
2017-08-29T04:57:23.736Z,99.99
2017-08-29T04:57:51.729Z,99.99
2017-08-29T04:58:19.637Z,99.99
2017-08-29T04:58:47.659Z,99.99
2017-08-29T04:59:15.682Z,99.99
2017-08-29T04:59:43.798Z,99.99
2017-08-29T05:00:11.895Z,99.99
2017-08-29T05:00:40.060Z,99.99
2017-08-29T05:01:07.998Z,99.99
2017-08-29T05:01:36.105Z,99.99
2017-08-29T05:02:04.216Z,99.99
2017-08-29T05:02:32.311Z,99.99
2017-08-29T05:03:00.217Z,99.99
2017-08-29T05:03:28.226Z,99.99
2017-08-29T05:03:56.236Z,99.99
2017-08-29T05:04:24.230Z,99.99
2017-08-29T05:04:52.245Z,99.99
2017-08-29T05:05:20.268Z,99.99
2017-08-29T05:05:48.378Z,99.99
2017-08-29T05:06:16.372Z,99.99
2017-08-29T05:06:44.478Z,99.99
2017-08-29T05:07:12.466Z,99.99
2017-08-29T05:07:40.573Z,99.99
2017-08-29T05:08:08.486Z,99.99
2017-08-29T05:08:36.489Z,99.99
2017-08-29T05:09:04.612Z,99.99
2017-08-29T05:09:32.638Z,99.99
2017-08-29T05:10:00.778Z,99.99
2017-08-29T05:10:28.878Z,99.99
2017-08-29T05:10:56.894Z,99.99
2017-08-29T05:11:25.016Z,99.99
2017-08-29T05:11:53.004Z,99.99
2017-08-29T05:12:20.928Z,99.99
2017-08-29T05:12:49.000Z,99.99
2017-08-29T05:13:17.051Z,99.99
2017-08-29T05:13:45.171Z,99.99
2017-08-29T05:14:13.272Z,99.99
2017-08-29T05:14:41.273Z,99.99
2017-08-29T05:15:09.369Z,99.99
2017-08-29T05:15:37.478Z,99.99
2017-08-29T05:16:05.484Z,99.99
2017-08-29T05:16:33.481Z,99.99
2017-08-29T05:17:01.604Z,99.99
2017-08-29T05:17:29.614Z,99.99
2017-08-29T05:17:57.506Z,99.99
2017-08-29T05:18:25.543Z,99.99
2017-08-29T05:18:53.570Z,99.99
2017-08-29T05:19:21.718Z,99.99
2017-08-29T05:19:49.787Z,99.99
2017-08-29T05:20:17.901Z,99.99
2017-08-29T05:20:45.704Z,99.99
2017-08-29T05:21:13.711Z,99.99
2017-08-29T05:21:41.631Z,99.99
2017-08-29T05:22:09.615Z,99.99
2017-08-29T05:22:37.773Z,99.99
2017-08-29T05:23:05.795Z,99.99
2017-08-29T05:23:33.795Z,99.99
2017-08-29T05:24:01.820Z,99.99
2017-08-29T05:24:29.947Z,99.99
2017-08-29T05:24:57.951Z,99.99
2017-08-29T05:25:26.044Z,99.99
2017-08-29T05:25:54.168Z,99.99
2017-08-29T05:26:22.048Z,99.99
2017-08-29T05:26:50.185Z,99.99
2017-08-29T05:27:18.291Z,99.99
2017-08-29T05:27:46.172Z,99.99
2017-08-29T05:28:14.161Z,99.99
2017-08-29T05:28:42.162Z,99.99
2017-08-29T05:29:10.188Z,99.99
2017-08-29T05:29:38.169Z,99.99
2017-08-29T05:30:06.193Z,99.99
2017-08-29T05:30:34.202Z,99.99
2017-08-29T05:31:02.318Z,99.99
2017-08-29T05:31:30.435Z,99.99
2017-08-29T05:31:58.347Z,99.99
2017-08-29T05:32:26.572Z,99.99
2017-08-29T05:32:54.579Z,99.99
2017-08-29T05:33:22.391Z,99.99
2017-08-29T05:33:50.498Z,99.99
2017-08-29T05:34:18.616Z,99.99
2017-08-29T05:34:46.523Z,99.99
2017-08-29T05:35:14.553Z,99.99
2017-08-29T05:35:42.684Z,99.99
2017-08-29T05:36:10.596Z,99.99
2017-08-29T05:36:38.596Z,99.99
2017-08-29T05:37:06.604Z,99.99
2017-08-29T05:37:34.740Z,99.99
2017-08-29T05:38:02.855Z,99.99
2017-08-29T05:38:30.882Z,99.99
2017-08-29T05:38:59.000Z,99.99
2017-08-29T05:39:27.104Z,99.99
2017-08-29T05:39:55.196Z,99.99
2017-08-29T05:40:23.329Z,99.99
2017-08-29T05:40:51.468Z,99.99
2017-08-29T05:41:19.432Z,99.99
2017-08-29T05:41:47.455Z,99.99
2017-08-29T05:42:15.449Z,99.99
2017-08-29T05:42:43.586Z,99.99
2017-08-29T05:43:11.396Z,99.99
2017-08-29T05:43:39.535Z,99.99
2017-08-29T05:44:07.329Z,99.99
2017-08-29T05:44:35.418Z,99.99
2017-08-29T05:45:03.519Z,99.99
2017-08-29T05:45:31.314Z,99.99
2017-08-29T05:45:59.389Z,99.99
2017-08-29T05:46:27.379Z,99.99
2017-08-29T05:46:55.399Z,99.99
2017-08-29T05:47:23.325Z,99.99
2017-08-29T05:47:51.313Z,99.99
2017-08-29T05:48:19.411Z,99.99
2017-08-29T05:48:47.326Z,99.99
2017-08-29T05:49:15.423Z,99.99
2017-08-29T05:49:43.415Z,99.99
2017-08-29T05:50:11.406Z,99.99
2017-08-29T05:50:39.517Z,99.99
2017-08-29T05:51:07.617Z,99.99
2017-08-29T05:51:35.720Z,99.99
2017-08-29T05:52:03.754Z,99.99
2017-08-29T05:52:31.848Z,99.99
2017-08-29T05:52:59.946Z,99.99
2017-08-29T05:53:28.031Z,99.99
2017-08-29T05:53:55.935Z,99.99
2017-08-29T05:54:23.970Z,99.99
2017-08-29T05:54:51.993Z,99.99
2017-08-29T05:55:19.884Z,99.99
2017-08-29T05:55:47.894Z,99.99
2017-08-29T05:56:15.914Z,99.99
2017-08-29T05:56:44.025Z,99.99
2017-08-29T05:57:12.133Z,99.99
2017-08-29T05:57:40.168Z,99.99
2017-08-29T05:58:08.177Z,99.99
2017-08-29T05:58:36.289Z,99.99
2017-08-29T05:59:04.211Z,99.99
2017-08-29T05:59:32.113Z,99.99
2017-08-29T06:00:00.229Z,99.99
2017-08-29T06:00:28.216Z,99.99
2017-08-29T06:00:56.315Z,99.99
2017-08-29T06:01:24.340Z,99.99
2017-08-29T06:01:52.648Z,99.99
2017-08-29T06:02:20.760Z,99.99
2017-08-29T06:02:48.874Z,99.99
2017-08-29T06:03:16.996Z,99.99